Time;durP1;ratioP1;P1;durP2;ratioP2;P2;SDS_P1;SDS_P2;PMS_P1;PMS_P2;Temp;Humidity;BMP_temperature;BMP_pressure;BME280_temperature;BME280_humidity;BME280_pressure;Samples;Min_cycle;Max_cycle;Signal;HPM_P1;HPM_P2
2022/12/28 00:02:35;;;;;;;3.80;0.85;;;12.50;77.30;;;;;;5047452;28;20149;-82
2022/12/28 00:05:20;;;;;;;6.68;1.50;;;12.60;77.50;;;;;;5046217;28;20028;-83
2022/12/28 00:08:05;;;;;;;4.88;1.58;;;12.50;77.20;;;;;;5047947;28;20044;-82
2022/12/28 00:10:49;;;;;;;4.72;1.25;;;12.50;77.30;;;;;;5052889;28;20518;-82
2022/12/28 00:13:34;;;;;;;4.68;1.35;;;12.50;77.30;;;;;;5057003;28;20060;-83
2022/12/28 00:16:24;;;;;;;7.30;1.60;;;12.50;77.30;;;;;;5049878;28;20550;-82
2022/12/28 00:19:14;;;;;;;4.78;1.33;;;12.40;77.10;;;;;;5049974;28;20083;-81
2022/12/28 00:21:59;;;;;;;4.97;1.35;;;12.40;77.10;;;;;;5034104;28;20035;-82
2022/12/28 00:24:43;;;;;;;8.77;1.27;;;12.40;77.10;;;;;;5049715;28;20047;-80
2022/12/28 00:27:28;;;;;;;6.25;1.02;;;12.30;77.00;;;;;;5047155;28;20063;-80
2022/12/28 00:30:13;;;;;;;4.20;1.30;;;12.30;77.10;;;;;;5030702;28;20060;-80
2022/12/28 00:32:57;;;;;;;4.32;1.50;;;12.40;77.50;;;;;;5045688;28;20047;-80
2022/12/28 00:35:42;;;;;;;6.47;1.15;;;12.50;77.70;;;;;;5053709;28;20048;-80
2022/12/28 00:38:30;;;;;;;3.85;1.20;;;12.60;77.80;;;;;;5044430;28;20420;-80
2022/12/28 00:41:14;;;;;;;5.65;1.52;;;12.70;77.80;;;;;;5049067;28;20121;-80
2022/12/28 00:44:00;;;;;;;4.60;1.30;;;12.80;77.80;;;;;;5043851;28;20051;-79
2022/12/28 00:46:44;;;;;;;4.20;1.45;;;12.90;77.70;;;;;;5045118;28;20098;-80
2022/12/28 00:49:29;;;;;;;3.65;1.20;;;13.00;77.70;;;;;;5048542;28;20059;-80
2022/12/28 00:52:14;;;;;;;2.28;1.38;;;13.10;77.70;;;;;;5051359;28;20423;-79
2022/12/28 00:54:58;;;;;;;2.03;1.35;;;13.20;77.70;;;;;;5042133;28;20040;-80
2022/12/28 00:57:43;;;;;;;4.57;1.10;;;13.20;77.50;;;;;;5048555;28;20055;-80
2022/12/28 01:00:29;;;;;;;3.58;1.20;;;13.30;77.50;;;;;;5047259;28;20099;-81
2022/12/28 01:03:16;;;;;;;4.00;1.25;;;13.40;77.50;;;;;;5045574;28;20523;-81
2022/12/28 01:06:08;;;;;;;5.20;1.15;;;13.50;77.60;;;;;;5056599;28;20039;-80
2022/12/28 01:08:54;;;;;;;5.72;2.10;;;13.50;77.40;;;;;;5042290;28;20062;-81
2022/12/28 01:11:38;;;;;;;5.05;1.50;;;13.60;77.90;;;;;;5045303;28;20059;-79
2022/12/28 01:14:24;;;;;;;3.80;1.08;;;13.60;77.30;;;;;;5047672;28;20118;-81
2022/12/28 01:17:08;;;;;;;5.05;1.20;;;13.70;77.30;;;;;;5049393;28;20059;-82
2022/12/28 01:19:53;;;;;;;3.45;1.05;;;13.70;77.20;;;;;;5053447;28;20087;-82
2022/12/28 01:22:37;;;;;;;2.95;1.15;;;13.80;77.20;;;;;;5046551;28;20047;-81
2022/12/28 01:25:22;;;;;;;4.93;1.77;;;13.80;77.10;;;;;;5059040;28;20392;-79
2022/12/28 01:28:07;;;;;;;4.03;0.90;;;13.90;77.20;;;;;;5050529;28;20043;-80
2022/12/28 01:30:51;;;;;;;5.97;1.05;;;13.90;77.10;;;;;;5045216;28;20044;-80
2022/12/28 01:33:38;;;;;;;5.78;1.00;;;13.90;77.00;;;;;;5052573;28;20527;-80
2022/12/28 01:36:24;;;;;;;1.25;0.90;;;13.90;76.90;;;;;;5036589;28;20067;-80
2022/12/28 01:39:10;;;;;;;3.60;0.80;;;13.90;76.80;;;;;;5042265;28;20068;-81
2022/12/28 01:41:55;;;;;;;3.45;1.75;;;14.00;76.90;;;;;;5047465;28;20048;-79
2022/12/28 01:44:42;;;;;;;6.10;2.35;;;14.00;76.80;;;;;;5052869;28;20541;-81
2022/12/28 01:47:33;;;;;;;2.72;0.80;;;14.00;76.70;;;;;;5039695;28;20052;-81
2022/12/28 01:50:25;;;;;;;5.45;0.88;;;14.10;76.80;;;;;;5031899;28;20051;-81
2022/12/28 01:53:10;;;;;;;2.60;0.98;;;14.10;76.70;;;;;;5057955;28;20191;-80
2022/12/28 01:55:54;;;;;;;3.20;1.00;;;14.10;76.60;;;;;;5048765;28;20053;-80
2022/12/28 01:58:39;;;;;;;2.85;0.98;;;14.10;76.60;;;;;;5050399;28;20138;-81
2022/12/28 02:01:26;;;;;;;2.15;1.05;;;14.10;76.50;;;;;;5056461;28;20146;-80
2022/12/28 02:04:13;;;;;;;2.58;0.77;;;14.10;76.40;;;;;;5041612;28;20109;-80
2022/12/28 02:06:57;;;;;;;4.05;0.95;;;14.20;76.50;;;;;;5049546;28;20063;-80
2022/12/28 02:09:43;;;;;;;2.58;0.82;;;14.20;76.40;;;;;;5056062;28;20549;-80
2022/12/28 02:12:28;;;;;;;2.10;0.93;;;14.20;76.30;;;;;;5039606;28;20220;-81
2022/12/28 02:15:12;;;;;;;2.85;1.33;;;14.20;76.20;;;;;;5050736;28;20071;-78
2022/12/28 02:17:57;;;;;;;2.53;0.70;;;14.30;76.30;;;;;;5048653;28;20232;-80
2022/12/28 02:21:00;;;;;;;2.33;0.90;;;14.30;76.20;;;;;;5051820;28;20096;-78
2022/12/28 02:24:03;;;;;;;2.90;0.77;;;14.30;76.10;;;;;;5046744;28;20520;-79
2022/12/28 02:27:06;;;;;;;2.67;0.60;;;14.30;76.10;;;;;;5048114;28;20039;-79
2022/12/28 02:30:01;;;;;;;3.00;1.10;;;14.30;76.10;;;;;;5050618;28;20167;-80
2022/12/28 02:32:59;;;;;;;2.83;0.73;;;14.30;76.00;;;;;;5048916;28;20059;-80
2022/12/28 02:35:56;;;;;;;2.55;1.05;;;14.30;75.90;;;;;;5060646;28;20454;-79
2022/12/28 02:38:50;;;;;;;4.13;0.90;;;14.30;75.90;;;;;;5044990;28;20044;-79
2022/12/28 02:41:38;;;;;;;3.25;0.82;;;14.30;75.80;;;;;;5047357;28;20110;-80
2022/12/28 02:50:59;;;;;;;2.05;0.50;;;14.40;75.90;;;;;;5051908;28;20048;-80
2022/12/28 02:54:02;;;;;;;1.80;0.63;;;14.30;75.70;;;;;;5048387;28;20178;-81
2022/12/28 02:56:59;;;;;;;1.73;0.50;;;14.40;75.80;;;;;;5057805;28;20160;-80
2022/12/28 03:00:01;;;;;;;1.13;0.45;;;14.40;75.70;;;;;;5063791;28;20154;-81
2022/12/28 03:03:13;;;;;;;0.95;0.60;;;14.40;75.60;;;;;;5064207;28;20550;-81
2022/12/28 03:09:46;;;;;;;2.72;0.63;;;14.40;75.50;;;;;;5076777;28;20098;-81
2022/12/28 03:12:55;;;;;;;2.17;0.60;;;14.40;75.40;;;;;;5066870;28;20399;-80
2022/12/28 03:15:40;;;;;;;1.10;0.70;;;14.50;75.60;;;;;;5040562;28;20137;-81
2022/12/28 03:31:05;;;;;;;1.50;0.68;;;14.50;75.40;;;;;;5050986;28;20624;-80
2022/12/28 03:34:05;;;;;;;1.05;0.45;;;14.50;75.40;;;;;;5041433;28;20145;-79
2022/12/28 03:37:08;;;;;;;1.42;0.60;;;14.50;75.40;;;;;;5050568;28;20103;-81
2022/12/28 03:40:06;;;;;;;1.42;0.70;;;14.50;75.30;;;;;;5055936;28;20035;-81
2022/12/28 03:46:10;;;;;;;1.75;0.50;;;14.50;75.30;;;;;;5055407;28;20056;-81
2022/12/28 03:48:59;;;;;;;1.88;0.40;;;14.60;75.40;;;;;;5045641;28;20036;-81
2022/12/28 03:51:47;;;;;;;0.85;0.43;;;14.60;75.40;;;;;;5047750;28;20055;-80
2022/12/28 03:54:33;;;;;;;1.13;0.63;;;14.50;75.20;;;;;;5049298;28;20043;-81
2022/12/28 03:57:18;;;;;;;1.00;0.85;;;14.60;75.30;;;;;;5044588;28;20134;-81
2022/12/28 04:00:10;;;;;;;1.45;0.40;;;14.60;75.30;;;;;;5036582;28;20039;-81
2022/12/28 04:03:00;;;;;;;1.00;0.45;;;14.60;75.30;;;;;;5055771;28;20451;-81
2022/12/28 04:05:46;;;;;;;1.33;0.45;;;14.60;75.30;;;;;;5055279;28;20517;-82
2022/12/28 04:08:32;;;;;;;1.88;0.47;;;14.60;75.20;;;;;;5051968;28;20716;-80
2022/12/28 04:11:16;;;;;;;1.35;0.40;;;14.60;75.10;;;;;;5044839;28;20048;-81
2022/12/28 04:14:06;;;;;;;0.80;0.50;;;14.70;75.20;;;;;;5055207;28;20083;-81
2022/12/28 04:16:54;;;;;;;2.05;0.60;;;14.60;75.00;;;;;;5051631;28;20071;-83
2022/12/28 04:19:38;;;;;;;0.88;0.47;;;14.70;75.20;;;;;;5058564;28;20554;-82
2022/12/28 04:22:23;;;;;;;5.80;0.90;;;14.70;75.10;;;;;;5041234;28;20464;-82
2022/12/28 04:25:08;;;;;;;1.40;0.80;;;14.70;75.60;;;;;;5050115;28;20117;-81
2022/12/28 04:27:53;;;;;;;0.55;0.40;;;14.70;75.10;;;;;;5050010;28;20151;-80
2022/12/28 04:31:15;;;;;;;0.70;0.70;;;14.70;75.10;;;;;;5050934;28;20082;-81
2022/12/28 04:34:08;;;;;;;1.67;0.55;;;14.70;75.00;;;;;;5042999;28;20039;-81
2022/12/28 04:36:56;;;;;;;0.68;0.30;;;14.70;75.00;;;;;;5045650;28;20048;-82
2022/12/28 04:39:41;;;;;;;1.52;0.50;;;14.70;75.00;;;;;;5049097;28;20035;-81
2022/12/28 04:42:25;;;;;;;1.00;0.30;;;14.70;75.00;;;;;;5056281;28;20058;-82
2022/12/28 04:45:10;;;;;;;1.60;0.43;;;14.80;75.10;;;;;;5058448;28;20602;-81
2022/12/28 04:47:58;;;;;;;1.95;0.55;;;14.80;75.10;;;;;;5047953;28;20067;-81
2022/12/28 04:50:43;;;;;;;0.47;0.40;;;14.80;75.10;;;;;;5050005;28;20140;-78
2022/12/28 04:53:27;;;;;;;1.20;0.40;;;14.80;75.10;;;;;;5055384;28;20071;-80
2022/12/28 04:56:13;;;;;;;0.75;0.47;;;14.80;75.00;;;;;;5049181;28;20036;-79
2022/12/28 04:58:59;;;;;;;0.98;0.47;;;14.80;75.00;;;;;;5048528;28;20522;-79
2022/12/28 05:01:44;;;;;;;0.60;0.40;;;14.80;75.00;;;;;;5050163;28;20036;-79
2022/12/28 05:04:28;;;;;;;0.73;0.40;;;14.90;75.20;;;;;;5049475;28;20087;-79
2022/12/28 05:07:13;;;;;;;0.63;0.35;;;14.90;75.10;;;;;;5049557;28;20097;-79
2022/12/28 05:09:58;;;;;;;0.63;0.30;;;14.90;75.10;;;;;;5047848;28;20047;-80
2022/12/28 05:12:42;;;;;;;0.60;0.40;;;15.00;75.30;;;;;;5043082;28;20102;-79
2022/12/28 05:15:27;;;;;;;0.52;0.40;;;15.00;75.20;;;;;;5045842;28;20592;-79
2022/12/28 05:18:12;;;;;;;0.55;0.30;;;15.00;75.20;;;;;;5048051;28;20487;-80
2022/12/28 05:21:05;;;;;;;0.60;0.30;;;15.00;75.10;;;;;;5049684;28;20124;-80
2022/12/28 05:23:52;;;;;;;0.75;0.30;;;15.10;75.60;;;;;;5045453;28;20043;-79
2022/12/28 05:26:38;;;;;;;1.17;0.30;;;15.10;75.30;;;;;;5046384;28;20539;-80
2022/12/28 05:29:22;;;;;;;1.00;0.20;;;15.10;75.20;;;;;;5049717;28;20047;-79
2022/12/28 05:32:07;;;;;;;0.57;0.30;;;15.10;75.20;;;;;;5034345;28;20048;-80
2022/12/28 05:34:52;;;;;;;1.15;0.30;;;15.20;75.30;;;;;;5048522;28;20087;-79
2022/12/28 05:37:36;;;;;;;0.35;0.30;;;15.20;75.30;;;;;;5049045;28;20059;-79
2022/12/28 05:40:21;;;;;;;0.68;0.32;;;15.20;75.20;;;;;;5043794;28;20499;-80
2022/12/28 05:43:06;;;;;;;1.58;0.60;;;15.20;75.20;;;;;;5049299;28;20043;-81
2022/12/28 05:45:50;;;;;;;0.50;0.43;;;15.30;75.30;;;;;;5048986;28;20067;-79
2022/12/28 05:48:37;;;;;;;1.05;0.45;;;15.30;75.30;;;;;;5044234;28;20037;-79
2022/12/28 05:51:25;;;;;;;0.43;0.20;;;15.30;75.30;;;;;;5049009;28;20067;-82
2022/12/28 05:54:10;;;;;;;1.25;0.40;;;15.30;75.20;;;;;;5019101;28;20075;-81
2022/12/28 05:56:55;;;;;;;0.50;0.30;;;15.40;75.30;;;;;;5040077;28;20043;-80
2022/12/28 05:59:39;;;;;;;0.85;0.20;;;15.30;75.10;;;;;;5046747;28;20039;-81
2022/12/28 06:02:26;;;;;;;1.02;0.30;;;15.40;75.30;;;;;;5062019;28;20051;-81
2022/12/28 06:05:10;;;;;;;2.60;1.20;;;15.40;75.30;;;;;;5059201;28;20116;-82
2022/12/28 06:07:56;;;;;;;1.17;0.98;;;15.40;75.30;;;;;;5050799;28;20082;-82
2022/12/28 06:10:41;;;;;;;0.30;0.20;;;15.40;75.30;;;;;;5064177;28;20105;-81
2022/12/28 06:13:25;;;;;;;0.20;0.20;;;15.40;75.30;;;;;;5060191;28;20028;-83
2022/12/28 06:16:19;;;;;;;0.30;0.20;;;15.50;75.50;;;;;;5062636;28;20204;-83
2022/12/28 06:19:06;;;;;;;0.77;0.38;;;15.40;75.30;;;;;;5060133;28;20088;-83
2022/12/28 06:21:52;;;;;;;1.15;0.30;;;15.50;75.40;;;;;;5055729;28;20063;-82
2022/12/28 06:24:36;;;;;;;1.38;0.28;;;15.50;75.40;;;;;;5058094;28;20036;-82
2022/12/28 06:27:21;;;;;;;1.35;0.40;;;15.50;75.40;;;;;;5057268;28;20429;-80
2022/12/28 06:30:07;;;;;;;0.82;0.30;;;15.50;75.40;;;;;;5069403;28;20052;-81
2022/12/28 06:32:51;;;;;;;0.52;0.20;;;15.50;75.40;;;;;;5062377;28;20056;-81
2022/12/28 06:35:40;;;;;;;0.82;0.20;;;15.50;75.40;;;;;;5063105;28;20602;-82
2022/12/28 06:38:25;;;;;;;0.75;0.30;;;15.50;75.40;;;;;;5060035;28;20117;-83
2022/12/28 06:41:12;;;;;;;1.35;0.40;;;15.50;75.40;;;;;;5036995;28;20067;-83
2022/12/28 06:43:57;;;;;;;0.38;0.20;;;15.50;75.40;;;;;;5045531;28;20040;-82
2022/12/28 06:46:41;;;;;;;0.60;0.20;;;15.50;75.30;;;;;;5055526;28;20067;-83
2022/12/28 06:49:26;;;;;;;0.10;0.10;;;15.60;75.50;;;;;;5047296;28;20047;-82
2022/12/28 06:52:11;;;;;;;0.70;0.30;;;15.60;76.00;;;;;;5048047;28;20396;-82
2022/12/28 06:54:56;;;;;;;0.32;0.20;;;15.60;75.40;;;;;;5042956;28;20040;-79
2022/12/28 06:57:41;;;;;;;0.55;0.30;;;15.60;75.40;;;;;;5052525;28;20043;-83
2022/12/28 07:00:26;;;;;;;1.80;0.40;;;15.60;75.90;;;;;;5047419;28;20056;-87
2022/12/28 07:03:11;;;;;;;0.77;0.20;;;15.60;75.40;;;;;;5006136;28;20075;-83
2022/12/28 07:06:01;;;;;;;0.57;0.20;;;15.60;75.40;;;;;;5036753;28;20040;-87
2022/12/28 07:08:59;;;;;;;0.20;0.20;;;15.60;75.40;;;;;;5049708;28;20151;-86
2022/12/28 07:11:44;;;;;;;0.60;0.20;;;15.60;75.30;;;;;;5016770;28;20087;-81
2022/12/28 07:14:31;;;;;;;0.75;0.22;;;15.70;75.50;;;;;;5058398;28;20048;-90
2022/12/28 07:17:16;;;;;;;1.10;0.30;;;15.70;75.50;;;;;;5065776;28;20132;-91
2022/12/28 07:20:02;;;;;;;0.22;0.20;;;15.70;75.50;;;;;;5050045;28;20064;-91
2022/12/28 07:22:48;;;;;;;0.95;0.40;;;15.70;75.50;;;;;;5048957;28;20052;-93
2022/12/28 07:25:35;;;;;;;2.00;0.30;;;15.70;75.50;;;;;;5075768;28;20051;-87
2022/12/28 07:28:28;;;;;;;1.05;0.35;;;15.70;75.50;;;;;;5042389;28;20107;-89
2022/12/28 07:31:34;;;;;;;0.20;0.20;;;15.70;75.40;;;;;;5049103;28;20068;-86
2022/12/28 07:34:22;;;;;;;0.88;0.30;;;15.70;75.40;;;;;;5032554;28;20542;-84
2022/12/28 07:37:07;;;;;;;0.68;0.40;;;15.60;75.20;;;;;;5029830;28;20060;-84
2022/12/28 07:39:51;;;;;;;0.52;0.38;;;15.60;75.20;;;;;;5004161;28;20127;-84
2022/12/28 07:42:36;;;;;;;0.82;0.35;;;15.60;75.20;;;;;;5048284;28;20132;-84
2022/12/28 07:45:23;;;;;;;0.43;0.30;;;15.60;75.30;;;;;;5047033;28;20214;-84
2022/12/28 07:48:07;;;;;;;0.40;0.25;;;15.60;75.30;;;;;;5052604;28;20065;-84
2022/12/28 07:50:52;;;;;;;0.30;0.30;;;15.60;75.30;;;;;;5019249;28;20052;-85
2022/12/28 07:53:40;;;;;;;1.48;0.45;;;15.60;75.30;;;;;;5053427;28;20210;-83
2022/12/28 07:56:26;;;;;;;0.88;0.50;;;15.60;75.20;;;;;;5033291;28;20426;-85
2022/12/28 07:59:12;;;;;;;0.82;0.50;;;15.70;75.50;;;;;;5056027;28;20059;-87
2022/12/28 08:01:56;;;;;;;1.33;0.45;;;15.60;75.20;;;;;;5048224;28;20388;-78
2022/12/28 08:04:41;;;;;;;2.05;0.75;;;15.60;75.20;;;;;;5041418;28;20065;-78
2022/12/28 08:07:27;;;;;;;1.77;0.30;;;15.60;75.20;;;;;;5047774;28;20107;-86
2022/12/28 08:10:15;;;;;;;1.90;0.60;;;15.60;75.20;;;;;;5030705;28;20051;-82
2022/12/28 08:13:00;;;;;;;1.55;0.55;;;15.60;75.20;;;;;;5040094;28;20120;-83
2022/12/28 08:15:53;;;;;;;1.35;0.35;;;15.70;76.00;;;;;;5048070;28;20712;-84
2022/12/28 08:18:39;;;;;;;4.70;1.30;;;15.70;75.40;;;;;;5060250;28;20078;-83
2022/12/28 08:21:35;;;;;;;3.50;1.05;;;15.70;75.50;;;;;;5053369;28;20075;-84
2022/12/28 08:24:20;;;;;;;5.75;1.52;;;15.80;75.70;;;;;;5045531;28;20122;-89
2022/12/28 08:27:05;;;;;;;4.57;1.35;;;15.70;75.60;;;;;;5047617;28;20515;-90
2022/12/28 08:29:50;;;;;;;4.22;1.70;;;15.80;75.90;;;;;;5059562;28;20565;-90
2022/12/28 08:32:35;;;;;;;2.95;1.70;;;15.90;76.10;;;;;;5049562;28;20044;-90
2022/12/28 08:35:19;;;;;;;4.97;1.75;;;15.90;76.10;;;;;;5043536;28;20047;-90
2022/12/28 08:38:04;;;;;;;3.55;1.00;;;16.00;76.20;;;;;;5056377;28;20110;-90
2022/12/28 08:40:57;;;;;;;5.05;1.25;;;16.10;76.30;;;;;;5044024;28;20116;-86
2022/12/28 08:43:42;;;;;;;3.58;1.10;;;16.10;76.30;;;;;;5054759;28;20541;-87
2022/12/28 08:46:30;;;;;;;4.43;1.20;;;16.20;76.30;;;;;;5058257;28;20062;-86
2022/12/28 08:49:15;;;;;;;4.35;1.17;;;16.30;76.40;;;;;;5059404;28;20177;-85
2022/12/28 08:51:59;;;;;;;2.88;0.80;;;16.30;76.30;;;;;;5047608;28;20409;-86
2022/12/28 08:54:45;;;;;;;3.95;1.52;;;16.30;76.10;;;;;;5052551;28;20309;-87
2022/12/28 08:57:30;;;;;;;3.78;0.98;;;16.40;76.20;;;;;;5031698;28;20102;-83
2022/12/28 09:00:14;;;;;;;2.35;0.85;;;16.40;76.00;;;;;;5050496;28;20039;-81
2022/12/28 09:03:00;;;;;;;3.17;1.17;;;16.40;75.80;;;;;;5047511;28;20044;-82
2022/12/28 09:05:44;;;;;;;5.10;1.00;;;16.40;75.60;;;;;;5053260;28;20058;-84
2022/12/28 09:08:29;;;;;;;2.65;1.30;;;16.30;75.40;;;;;;5043444;28;20312;-78
2022/12/28 09:11:14;;;;;;;3.80;1.20;;;16.30;75.40;;;;;;5045714;28;20133;-77
2022/12/28 09:13:58;;;;;;;3.78;1.45;;;16.20;75.30;;;;;;5044832;28;20103;-80
2022/12/28 09:16:44;;;;;;;4.25;0.90;;;16.10;75.20;;;;;;5053337;28;20039;-79
2022/12/28 09:19:29;;;;;;;4.32;1.70;;;16.10;75.40;;;;;;5053900;28;20141;-80
2022/12/28 09:22:15;;;;;;;4.93;1.90;;;16.00;75.30;;;;;;5046747;28;20394;-79
2022/12/28 09:25:00;;;;;;;7.57;1.60;;;15.90;75.30;;;;;;5046295;28;20048;-78
2022/12/28 09:27:48;;;;;;;5.35;2.13;;;15.90;75.40;;;;;;5029268;28;20032;-79
2022/12/28 09:30:33;;;;;;;6.47;1.27;;;15.80;75.30;;;;;;5046850;28;20236;-79
2022/12/28 09:36:21;;;;;;;5.65;1.30;;;15.70;75.40;;;;;;5039565;28;20454;-79
2022/12/28 09:39:15;;;;;;;8.70;1.33;;;15.70;75.50;;;;;;5047822;28;20159;-79
2022/12/28 09:42:25;;;;;;;3.08;0.95;;;15.60;75.40;;;;;;5043716;28;20052;-79
2022/12/28 09:45:12;;;;;;;5.40;1.48;;;15.60;75.50;;;;;;5039723;28;20040;-80
2022/12/28 09:48:06;;;;;;;5.10;1.50;;;15.60;75.60;;;;;;5043177;28;20195;-79
2022/12/28 09:50:50;;;;;;;8.38;2.35;;;15.50;75.40;;;;;;5043425;28;20134;-79
2022/12/28 09:53:36;;;;;;;3.80;1.23;;;15.50;75.50;;;;;;5052600;28;20051;-79
2022/12/28 09:56:38;;;;;;;6.57;1.92;;;15.50;75.50;;;;;;5046682;28;20628;-79
2022/12/28 09:59:28;;;;;;;9.23;2.40;;;15.50;75.50;;;;;;5041972;28;20055;-80
2022/12/28 10:02:33;;;;;;;3.13;1.42;;;15.50;75.50;;;;;;5050131;28;20152;-79
2022/12/28 10:05:20;;;;;;;10.15;2.42;;;15.40;75.30;;;;;;5052090;28;20055;-79
2022/12/28 10:08:04;;;;;;;3.13;1.20;;;15.50;75.50;;;;;;5056860;28;20155;-79
2022/12/28 10:10:51;;;;;;;5.68;1.70;;;15.40;75.30;;;;;;5056143;28;20055;-79
2022/12/28 10:13:37;;;;;;;4.10;1.40;;;15.50;75.40;;;;;;5052409;28;20044;-78
2022/12/28 10:16:24;;;;;;;4.90;1.83;;;15.40;75.20;;;;;;5056259;28;20379;-78
2022/12/28 10:19:18;;;;;;;6.57;1.70;;;15.50;75.30;;;;;;5053326;28;20091;-79
2022/12/28 10:22:12;;;;;;;5.60;1.58;;;15.50;75.30;;;;;;5055403;28;20044;-79
2022/12/28 10:24:57;;;;;;;4.00;1.85;;;15.50;75.20;;;;;;5052388;28;20044;-79
2022/12/28 10:27:42;;;;;;;3.55;1.40;;;15.50;75.20;;;;;;5042333;28;20407;-78
2022/12/28 10:30:27;;;;;;;4.72;1.40;;;15.50;75.10;;;;;;5051240;28;20397;-79
2022/12/28 10:33:17;;;;;;;5.82;1.35;;;15.50;75.00;;;;;;5043045;28;20126;-79
2022/12/28 10:36:04;;;;;;;5.22;1.40;;;15.50;75.00;;;;;;5051092;28;20027;-78
2022/12/28 10:38:52;;;;;;;5.85;1.20;;;15.50;75.00;;;;;;5053912;28;20056;-78
2022/12/28 10:41:37;;;;;;;5.53;1.27;;;15.50;74.90;;;;;;5039428;28;20442;-78
2022/12/28 10:44:34;;;;;;;5.32;1.00;;;15.50;74.90;;;;;;5043038;28;20043;-79
2022/12/28 10:47:29;;;;;;;3.53;1.00;;;15.50;74.80;;;;;;5040714;28;20041;-78
2022/12/28 10:50:36;;;;;;;6.05;1.50;;;15.50;74.80;;;;;;5044460;28;20091;-78
2022/12/28 10:53:39;;;;;;;5.30;1.17;;;15.50;74.80;;;;;;5041772;28;21033;-78
2022/12/28 10:56:32;;;;;;;5.05;1.30;;;15.40;74.60;;;;;;5036502;28;20044;-78
2022/12/28 10:59:24;;;;;;;2.95;0.98;;;15.40;74.60;;;;;;5050500;28;20052;-78
2022/12/28 11:02:29;;;;;;;3.05;1.10;;;15.40;74.50;;;;;;5048042;28;20044;-78
2022/12/28 11:05:20;;;;;;;6.32;2.25;;;15.50;74.60;;;;;;5046702;28;20075;-79
2022/12/28 11:08:05;;;;;;;3.78;1.10;;;15.40;74.40;;;;;;5041683;28;20047;-78
2022/12/28 11:10:56;;;;;;;3.50;1.30;;;15.50;74.60;;;;;;5050234;28;20080;-77
2022/12/28 11:13:44;;;;;;;4.22;1.45;;;15.50;74.60;;;;;;5044181;28;20144;-78
2022/12/28 11:16:32;;;;;;;3.45;0.93;;;15.50;74.60;;;;;;5044918;28;20052;-78
2022/12/28 11:19:16;;;;;;;2.85;0.73;;;15.50;74.50;;;;;;5039636;28;20056;-79
2022/12/28 11:22:02;;;;;;;3.80;0.80;;;15.50;74.50;;;;;;5035202;28;20040;-78
2022/12/28 11:24:46;;;;;;;4.15;0.88;;;15.60;74.60;;;;;;5045719;28;20507;-79
2022/12/28 11:27:32;;;;;;;3.78;1.13;;;15.60;74.40;;;;;;5041405;28;20075;-77
2022/12/28 11:30:18;;;;;;;3.58;1.25;;;15.60;74.30;;;;;;5045294;28;20036;-79
2022/12/28 11:33:08;;;;;;;3.17;1.75;;;15.70;74.40;;;;;;5048321;28;20078;-79
2022/12/28 11:35:54;;;;;;;3.50;1.17;;;15.80;74.40;;;;;;5043016;28;20048;-76
2022/12/28 11:38:50;;;;;;;3.25;1.15;;;15.80;74.30;;;;;;5049725;28;20058;-78
2022/12/28 11:41:35;;;;;;;2.60;0.90;;;15.80;74.20;;;;;;5041800;28;20550;-77
2022/12/28 11:44:41;;;;;;;1.77;0.85;;;15.90;74.30;;;;;;5041360;28;20129;-77
2022/12/28 11:47:35;;;;;;;3.40;1.60;;;15.90;74.10;;;;;;5042044;28;20079;-76
2022/12/28 11:50:37;;;;;;;2.03;0.93;;;16.00;74.20;;;;;;5043599;28;20463;-78
2022/12/28 11:53:44;;;;;;;2.65;1.30;;;16.00;74.10;;;;;;5044879;28;20048;-78
2022/12/28 11:56:44;;;;;;;1.88;0.68;;;16.00;74.00;;;;;;5041794;28;20044;-78
2022/12/28 11:59:31;;;;;;;1.05;0.52;;;16.10;74.10;;;;;;5051266;28;20056;-78
2022/12/28 12:02:19;;;;;;;1.55;0.70;;;16.10;74.50;;;;;;5054429;28;20437;-79
2022/12/28 12:05:38;;;;;;;2.42;1.20;;;16.10;73.90;;;;;;5056250;28;20094;-78
2022/12/28 12:08:22;;;;;;;1.98;0.80;;;16.20;73.90;;;;;;5055900;28;20126;-77
2022/12/28 12:11:32;;;;;;;1.52;0.70;;;16.30;74.10;;;;;;5046579;28;20043;-78
2022/12/28 12:14:31;;;;;;;2.92;0.90;;;16.30;73.90;;;;;;5045428;28;20103;-78
2022/12/28 12:17:31;;;;;;;1.00;0.55;;;16.30;73.70;;;;;;5044558;28;20052;-78
2022/12/28 12:20:48;;;;;;;2.33;0.63;;;16.40;73.90;;;;;;5044703;28;20533;-78
2022/12/28 12:23:41;;;;;;;1.40;0.80;;;16.50;73.80;;;;;;5044531;28;20054;-78
2022/12/28 12:26:28;;;;;;;;;;;16.60;73.80;;;;;;5047255;28;20460;-78
2022/12/28 12:29:21;;;;;;;1.15;0.52;;;16.60;73.70;;;;;;5050032;28;19999;-78
2022/12/28 12:32:10;;;;;;;1.48;0.55;;;16.60;73.50;;;;;;5046034;28;20079;-77
2022/12/28 12:35:06;;;;;;;1.35;0.50;;;16.70;73.50;;;;;;5048110;28;20067;-78
2022/12/28 12:37:53;;;;;;;1.02;0.40;;;16.70;73.40;;;;;;5043068;28;20082;-77
2022/12/28 12:41:00;;;;;;;1.67;0.68;;;16.70;73.40;;;;;;5045020;28;20313;-77
2022/12/28 12:44:16;;;;;;;0.75;0.47;;;16.80;73.40;;;;;;5038322;28;20072;-77
2022/12/28 12:47:26;;;;;;;1.13;0.50;;;16.80;73.30;;;;;;5034593;28;20052;-77
2022/12/28 12:50:35;;;;;;;1.48;0.63;;;16.80;73.30;;;;;;5045654;28;20048;-77
2022/12/28 12:53:48;;;;;;;0.85;0.47;;;16.80;73.20;;;;;;5036986;28;20048;-83
2022/12/28 12:56:54;;;;;;;1.33;0.95;;;16.80;73.10;;;;;;5045216;28;20405;-79
2022/12/28 12:59:57;;;;;;;0.90;0.60;;;16.90;73.20;;;;;;5040563;28;20067;-78
2022/12/28 13:02:55;;;;;;;1.30;0.50;;;16.90;73.10;;;;;;5046139;28;20056;-77
2022/12/28 13:05:44;;;;;;;2.05;1.05;;;17.00;73.10;;;;;;5040935;28;20032;-78
2022/12/28 13:08:56;;;;;;;1.73;0.50;;;17.00;73.00;;;;;;5038336;28;20032;-78
2022/12/28 13:11:41;;;;;;;1.60;0.77;;;17.10;73.00;;;;;;5046363;28;20140;-79
2022/12/28 13:14:27;;;;;;;1.67;0.50;;;17.10;73.10;;;;;;5051609;28;20101;-80
2022/12/28 13:17:17;;;;;;;1.15;0.32;;;17.00;72.90;;;;;;5049378;28;20430;-80
2022/12/28 13:20:21;;;;;;;1.58;0.50;;;17.00;72.90;;;;;;5053688;28;20044;-79
2022/12/28 13:23:14;;;;;;;0.80;0.60;;;16.90;72.90;;;;;;5046963;28;20039;-79
2022/12/28 13:26:00;;;;;;;0.80;0.40;;;16.80;72.90;;;;;;5051832;28;20110;-79
2022/12/28 13:29:00;;;;;;;1.67;0.65;;;16.80;73.10;;;;;;5047533;28;20118;-79
2022/12/28 13:31:48;;;;;;;1.45;0.70;;;16.70;73.00;;;;;;5052770;28;20423;-79
2022/12/28 13:34:34;;;;;;;0.52;0.40;;;16.70;73.20;;;;;;5030759;28;20047;-79
2022/12/28 13:37:19;;;;;;;0.63;0.63;;;16.60;73.10;;;;;;5040470;28;20124;-78
2022/12/28 13:40:14;;;;;;;0.88;0.65;;;16.60;73.20;;;;;;5053547;28;20040;-80
2022/12/28 13:43:33;;;;;;;2.15;0.50;;;16.60;73.20;;;;;;5056468;28;20093;-80
2022/12/28 13:46:20;;;;;;;0.52;0.40;;;16.50;73.20;;;;;;5058538;28;20047;-79
2022/12/28 13:49:05;;;;;;;1.13;0.40;;;16.40;73.20;;;;;;5053590;28;20043;-78
2022/12/28 13:51:50;;;;;;;1.10;0.50;;;16.30;73.30;;;;;;5049925;28;20052;-79
2022/12/28 13:54:36;;;;;;;1.70;0.77;;;16.30;73.30;;;;;;5056886;28;20407;-78
2022/12/28 13:57:23;;;;;;;1.10;0.93;;;16.30;73.50;;;;;;5046203;28;20107;-79
2022/12/28 14:00:09;;;;;;;1.88;0.98;;;16.30;73.50;;;;;;5053702;28;20094;-79
2022/12/28 14:02:54;;;;;;;2.15;0.60;;;16.30;73.50;;;;;;5048114;28;20043;-79
2022/12/28 14:05:46;;;;;;;1.50;0.60;;;16.30;73.40;;;;;;5051601;28;20558;-79
2022/12/28 14:08:36;;;;;;;3.65;0.73;;;16.30;73.40;;;;;;5045082;28;20067;-80
2022/12/28 14:11:21;;;;;;;1.58;0.70;;;16.30;73.40;;;;;;5051866;28;20047;-79
2022/12/28 14:14:06;;;;;;;3.05;1.10;;;16.20;73.30;;;;;;5050196;28;20059;-78
2022/12/28 14:16:50;;;;;;;4.18;1.35;;;16.20;73.30;;;;;;5057301;28;20071;-78
2022/12/28 14:19:36;;;;;;;4.97;2.28;;;16.20;73.90;;;;;;5058095;28;20048;-79
2022/12/28 14:22:40;;;;;;;7.03;1.55;;;16.10;73.10;;;;;;5066789;28;20107;-79
2022/12/28 14:25:25;;;;;;;6.60;1.77;;;16.10;72.90;;;;;;5065222;28;20052;-79
2022/12/28 14:28:22;;;;;;;7.43;1.80;;;16.10;73.00;;;;;;5059343;28;20086;-79
2022/12/28 14:31:10;;;;;;;4.97;1.38;;;16.10;72.90;;;;;;5042588;28;20047;-79
2022/12/28 14:34:05;;;;;;;7.07;1.85;;;16.10;73.00;;;;;;5057159;28;20075;-80
2022/12/28 14:36:53;;;;;;;8.52;1.55;;;16.00;72.80;;;;;;5044794;28;20071;-79
2022/12/28 14:39:44;;;;;;;6.05;2.33;;;16.00;72.90;;;;;;5042209;28;20048;-79
2022/12/28 14:42:30;;;;;;;7.72;1.95;;;15.90;72.80;;;;;;5046284;28;20059;-79
2022/12/28 14:45:32;;;;;;;10.57;3.15;;;15.90;72.80;;;;;;5063556;28;20454;-79
2022/12/28 14:48:29;;;;;;;12.63;2.83;;;15.80;72.70;;;;;;5042057;28;20060;-79
2022/12/28 14:51:13;;;;;;;4.65;1.90;;;15.80;72.80;;;;;;5049651;28;20410;-78
2022/12/28 14:54:19;;;;;;;5.22;1.90;;;15.70;72.80;;;;;;5054843;28;20059;-79
2022/12/28 14:57:19;;;;;;;7.40;1.60;;;15.60;72.70;;;;;;5029331;28;20043;-79
2022/12/28 15:00:20;;;;;;;6.40;1.60;;;15.50;72.70;;;;;;5049634;28;20047;-81
2022/12/28 15:03:19;;;;;;;9.88;2.30;;;15.40;72.70;;;;;;5046997;28;20080;-80
2022/12/28 15:06:04;;;;;;;10.40;2.53;;;15.40;72.80;;;;;;5048076;28;20048;-86
2022/12/28 15:08:50;;;;;;;8.52;2.58;;;15.30;72.70;;;;;;5048314;28;20797;-84
2022/12/28 15:11:34;;;;;;;9.45;2.50;;;15.30;72.80;;;;;;5048536;28;20119;-82
2022/12/28 15:14:20;;;;;;;11.13;2.35;;;15.20;72.70;;;;;;5049998;28;20059;-89